SFJ614 RJFK-RJFR
Flight info
| Callsign | SFJ614 |
|---|---|
| Flight time | N/A |
| Altitude | 19000 |
| Route | SASIK KUE RISBI ASARI |
| Aircraft | A20N/M-SDE2E3FGHIJ1RWXY/LB1 |
Departure
| Time | 2026-05-08 13:52 |
|---|---|
| Airport | Kagoshima Airport (RJFK) |
Arrival
| Time | N/A |
|---|---|
| Airport | Kitakyushu Airport (RJFR) |
| Time | Latitude | Longitude | Altitude | Speed | Heading |
|---|---|---|---|---|---|
| 2026-05-08 13:10 | 31.80169 | 130.71657 | 894 ft | 0 kts | 240° |
| 2026-05-08 13:36 | 31.80171 | 130.71661 | 894 ft | 2 kts | 240° |
| 2026-05-08 13:36 | 31.80179 | 130.71677 | 894 ft | 2 kts | 240° |
| 2026-05-08 13:37 | 31.80186 | 130.71693 | 894 ft | 2 kts | 240° |
| 2026-05-08 13:37 | 31.80194 | 130.71707 | 894 ft | 2 kts | 240° |
| 2026-05-08 13:37 | 31.80201 | 130.71722 | 894 ft | 2 kts | 240° |
| 2026-05-08 13:37 | 31.80209 | 130.71738 | 894 ft | 2 kts | 240° |
| 2026-05-08 13:38 | 31.80216 | 130.71753 | 894 ft | 2 kts | 240° |
| 2026-05-08 13:38 | 31.80224 | 130.71768 | 894 ft | 2 kts | 240° |
| 2026-05-08 13:38 | 31.80228 | 130.71779 | 894 ft | 1 kts | 239° |
| 2026-05-08 13:38 | 31.80237 | 130.71785 | 894 ft | 1 kts | 173° |
| 2026-05-08 13:39 | 31.80243 | 130.71782 | 894 ft | 1 kts | 141° |
| 2026-05-08 13:39 | 31.80247 | 130.71779 | 894 ft | 0 kts | 150° |
| 2026-05-08 13:40 | 31.80245 | 130.71780 | 894 ft | 2 kts | 150° |
| 2026-05-08 13:41 | 31.80197 | 130.71812 | 894 ft | 11 kts | 150° |
| 2026-05-08 13:41 | 31.80123 | 130.71861 | 893 ft | 13 kts | 150° |
| 2026-05-08 13:41 | 31.80031 | 130.71924 | 890 ft | 16 kts | 150° |
| 2026-05-08 13:41 | 31.79922 | 130.71997 | 888 ft | 18 kts | 150° |
| 2026-05-08 13:42 | 31.79806 | 130.72080 | 885 ft | 20 kts | 149° |
| 2026-05-08 13:42 | 31.79676 | 130.72168 | 881 ft | 22 kts | 152° |
| 2026-05-08 13:42 | 31.79533 | 130.72261 | 875 ft | 24 kts | 151° |
| 2026-05-08 13:42 | 31.79397 | 130.72362 | 869 ft | 22 kts | 148° |
| 2026-05-08 13:43 | 31.79255 | 130.72452 | 865 ft | 23 kts | 151° |
| 2026-05-08 13:43 | 31.79121 | 130.72556 | 859 ft | 17 kts | 119° |
| 2026-05-08 13:43 | 31.79131 | 130.72633 | 858 ft | 5 kts | 56° |
| 2026-05-08 13:43 | 31.79136 | 130.72643 | 858 ft | 0 kts | 59° |
| 2026-05-08 13:49 | 31.79137 | 130.72646 | 858 ft | 1 kts | 59° |
| 2026-05-08 13:50 | 31.79147 | 130.72664 | 858 ft | 3 kts | 58° |
| 2026-05-08 13:50 | 31.79165 | 130.72697 | 857 ft | 5 kts | 50° |
| 2026-05-08 13:50 | 31.79202 | 130.72704 | 858 ft | 4 kts | 353° |
| 2026-05-08 13:50 | 31.79216 | 130.72696 | 858 ft | 0 kts | 330° |
| 2026-05-08 13:51 | 31.79217 | 130.72696 | 858 ft | 1 kts | 330° |
| 2026-05-08 13:52 | 31.79368 | 130.72594 | 864 ft | 60 kts | 330° |
| 2026-05-08 13:52 | 31.79935 | 130.72217 | 882 ft | 124 kts | 329° |
| 2026-05-08 13:52 | 31.80799 | 130.71617 | 1205 ft | 149 kts | 329° |
| 2026-05-08 13:52 | 31.81719 | 130.71048 | 1803 ft | 156 kts | 341° |
| 2026-05-08 13:53 | 31.82780 | 130.70741 | 2546 ft | 159 kts | 344° |
| 2026-05-08 13:53 | 31.83843 | 130.70363 | 3152 ft | 165 kts | 341° |
| 2026-05-08 13:53 | 31.84956 | 130.69878 | 3711 ft | 175 kts | 341° |
| 2026-05-08 13:53 | 31.86146 | 130.69415 | 4197 ft | 190 kts | 342° |
| 2026-05-08 13:54 | 31.87511 | 130.68929 | 4579 ft | 215 kts | 343° |
| 2026-05-08 13:54 | 31.88996 | 130.68417 | 5114 ft | 233 kts | 343° |
| 2026-05-08 13:54 | 31.90624 | 130.67864 | 5713 ft | 249 kts | 343° |
| 2026-05-08 13:54 | 31.92313 | 130.67293 | 6560 ft | 255 kts | 343° |
| 2026-05-08 13:55 | 31.94009 | 130.66724 | 7465 ft | 258 kts | 343° |
| 2026-05-08 13:55 | 31.95747 | 130.66121 | 8321 ft | 263 kts | 340° |
| 2026-05-08 13:55 | 31.99255 | 130.64703 | 10033 ft | 271 kts | 338° |
| 2026-05-08 13:56 | 32.01043 | 130.63972 | 10744 ft | 280 kts | 338° |
| 2026-05-08 13:56 | 32.02943 | 130.63190 | 11206 ft | 298 kts | 338° |
| 2026-05-08 13:56 | 32.04987 | 130.62350 | 11630 ft | 317 kts | 337° |
| 2026-05-08 13:56 | 32.07122 | 130.61476 | 12022 ft | 335 kts | 337° |
| 2026-05-08 13:57 | 32.09396 | 130.60547 | 12364 ft | 353 kts | 337° |
| 2026-05-08 13:57 | 32.11744 | 130.59587 | 12876 ft | 364 kts | 337° |